Airfield :
LOGIN :

Register | Disclaimer

   EN    FR    IT 

 










Legend :    VFR   Marginal VFR   IFR   Intensive IFR   Very Intensive IFR
Visi :
Ceiling :
>= 8 km
>= 3000ft
5 to 8 km
1000 to 3000 ft
1500m to 5 km
500 to 1000 ft
800 to 1500m
200 to 500 ft
< 800m
< 200 ft
Symbols :   Thunderstorms  Fog  Heavy snow  Heavy precipitations  Wind > 20 kt
SIGMETs :     Misc.  Thunderstorms  Icing  Turbulence  Mountain Waves  Volcanic Ashes







- Airport Elevation : 580 ft
- Download approach charts


LFOA - Avord

CURRENT METAR :
  • 141830Z AUTO 25017KT 9999 FEW012/// BKN020/// OVC027/// ///TCU 07/06 Q0998 TEMPO 27025G45KT 4000 SHRA BECMG BKN030

EXPIRED METARs :
  • 141800Z AUTO 24013KT 9999 RA BKN009/// OVC015/// ///TCU 07/06 Q0999 TEMPO 27025G45KT 4000 SHRA BKN008 BKN015CB
  • 141730Z AUTO 25016KT 6000 -RA BKN010/// BKN020/// BKN028/// ///TCU 07/06 Q0999 TEMPO 27025G45KT 4000 SHRA BKN008 BKN015CB
  • 141700Z AUTO 25014KT 9999 -RA FEW018 BKN033 OVC045 07/06 Q0999 TEMPO 27030G55KT 2000 TSRAGS BKN008 BKN015CB
  • 141630Z AUTO 26014KT 9999 SCT018/// BKN024/// BKN029/// ///TCU 07/06 Q1000 TEMPO 27030G55KT 2000 TSRAGS BKN008 BKN015CB
  • 141600Z AUTO 25019KT 7000 -RA FEW021/// SCT030/// BKN035/// ///TCU 07/06 Q1000 TEMPO 27030G55KT 2000 TSRAGS BKN008 BKN015CB

TAF TAF LFOA
Valid from the 14 at 15:00 until the 15 at 15:00 UTC


141400Z 1415/1515 24017KT 9999 BKN030
TEMPO 1415/1420 27025G45KT 4000 SHRA SCT008 BKN015TCU
PROB40
TEMPO 1415/1419 27030G55KT 2000 TSRAGS BKN008 BKN015CB
BECMG 1507/1509 21015G25KT 4000 SHRA SCT010 BKN015TCU
PROB40
TEMPO 1512/1515 21020G40KT 2000 TSRA BKN008 BKN020CB
No reported NOTAMs for that airfield.
2 SIGMETs reported for the Paris FIR (LFFF) :
 
Embedded thunderstorms
LFFF SIGMET 12 VALID 141730/141930 LFPW
LFFF PARIS FIR/UIR EMBD TS OBS AT 1715Z WI N4900 W00015 - N5000 W00015 - N5030 E00100 - N4945 E00130 - N4900 W00015 TOP FL290 MOV ESE 30KT NC=
Severe turbulence
LFFF SIGMET 11 VALID 141700/142000 LFPW
LFFF PARIS FIR/UIR SEV TURB OBS AT 1700Z S OF N4745 FL160/300 STNR NC=



MET'MAP, your aeronautical weather chart ! - Copyright ORBIFLY December 2007 - Disclaimer

ORBIFLY MET'MAP TEAM :

Programming & Development : Alexandra Zaïnal
Concept & Development : Baudouin d'Aumeries
Co-Development & Prog : Marc-Olivier Méhu
Technical & hardware support : Manuel Goepfert

Contact : metmap@orbifly.com




SOURCES & CREDITS :

   NOAA